createdAt,value
2018-02-06T00:00:03.823Z,15.00
2018-02-06T00:02:32.368Z,12.03
2018-02-06T00:05:00.604Z,12.10
2018-02-06T00:07:28.899Z,11.85
2018-02-06T00:09:57.176Z,13.10
2018-02-06T00:12:25.458Z,12.10
2018-02-06T00:14:53.731Z,13.57
2018-02-06T00:17:22.024Z,14.37
2018-02-06T00:19:50.283Z,13.13
2018-02-06T00:22:18.582Z,18.13
2018-02-06T00:24:46.841Z,11.60
2018-02-06T00:27:15.175Z,13.15
2018-02-06T00:29:44.008Z,13.93
2018-02-06T00:32:12.300Z,14.73
2018-02-06T00:34:40.653Z,13.97
2018-02-06T00:37:08.930Z,13.37
2018-02-06T00:39:37.213Z,12.30
2018-02-06T00:42:05.496Z,13.67
2018-02-06T00:44:33.789Z,12.53
2018-02-06T00:47:02.145Z,12.33
2018-02-06T00:49:30.429Z,11.03
2018-02-06T00:51:58.741Z,12.90
2018-02-06T00:54:27.039Z,12.80
2018-02-06T00:56:55.360Z,15.00
2018-02-06T00:59:23.623Z,16.77
2018-02-06T01:01:51.943Z,11.38
2018-02-06T01:04:20.203Z,15.80
2018-02-06T01:06:48.526Z,13.40
2018-02-06T01:09:16.803Z,13.63
2018-02-06T01:11:45.123Z,15.87
2018-02-06T01:14:13.386Z,13.65
2018-02-06T01:16:41.683Z,12.93
2018-02-06T01:19:09.979Z,12.40
2018-02-06T01:21:38.230Z,16.13
2018-02-06T01:24:06.556Z,17.10
2018-02-06T01:26:34.831Z,13.87
2018-02-06T01:29:03.139Z,15.53
2018-02-06T01:31:31.412Z,14.40
2018-02-06T01:33:59.702Z,15.23
2018-02-06T01:36:27.987Z,13.80
2018-02-06T01:38:56.269Z,13.27
2018-02-06T01:41:24.539Z,14.85
2018-02-06T01:43:52.865Z,14.20
2018-02-06T01:46:21.169Z,15.00
2018-02-06T01:48:49.470Z,15.43
2018-02-06T01:51:17.747Z,16.70
2018-02-06T01:53:46.019Z,18.67
2018-02-06T01:56:14.349Z,14.77
2018-02-06T01:58:42.616Z,18.13
2018-02-06T02:01:10.907Z,13.90
2018-02-06T02:03:39.192Z,14.27
2018-02-06T02:06:07.918Z,15.93
2018-02-06T02:08:36.191Z,17.17
2018-02-06T02:11:05.436Z,15.30
2018-02-06T02:13:33.761Z,15.13
2018-02-06T02:16:02.023Z,14.60
2018-02-06T02:18:30.323Z,19.23
2018-02-06T02:20:58.643Z,17.73
2018-02-06T02:23:26.953Z,18.40
2018-02-06T02:25:55.251Z,14.93
2018-02-06T02:28:23.542Z,13.40
2018-02-06T02:30:51.877Z,16.97
2018-02-06T02:33:21.436Z,15.65
2018-02-06T02:35:49.720Z,15.93
2018-02-06T02:38:18.023Z,15.40
2018-02-06T02:40:46.324Z,16.93
2018-02-06T04:39:28.351Z,14.87
2018-02-06T04:41:57.305Z,15.60
2018-02-06T04:44:25.583Z,18.07
2018-02-06T04:46:54.164Z,17.20
2018-02-06T04:49:22.422Z,17.97
2018-02-06T04:51:50.723Z,16.67
2018-02-06T04:54:19.037Z,21.63
2018-02-06T04:56:47.379Z,17.77
2018-02-06T04:59:15.658Z,21.20
2018-02-06T05:01:43.919Z,18.90
2018-02-06T05:04:12.229Z,16.17
2018-02-06T05:06:40.550Z,17.20
2018-02-06T05:09:08.864Z,17.63
2018-02-06T05:11:37.143Z,20.77
2018-02-06T05:14:05.448Z,18.60
2018-02-06T05:16:33.751Z,18.67
2018-02-06T05:19:02.089Z,17.45
2018-02-06T05:21:30.459Z,17.07
2018-02-06T05:23:58.744Z,17.27
2018-02-06T05:26:27.020Z,17.63
2018-02-06T05:28:55.336Z,17.63
2018-02-06T05:31:23.647Z,19.87
2018-02-06T05:33:51.913Z,17.00
2018-02-06T05:36:20.241Z,19.58
2018-02-06T05:38:48.517Z,17.20
2018-02-06T05:41:16.828Z,18.33
2018-02-06T05:43:45.096Z,19.10
2018-02-06T05:46:13.603Z,19.17
2018-02-06T05:48:41.886Z,23.60
2018-02-06T05:51:10.155Z,16.20
2018-02-06T05:53:38.483Z,18.37
2018-02-06T05:56:06.837Z,17.87
2018-02-06T05:58:35.150Z,19.17
2018-02-06T06:01:03.433Z,20.30
2018-02-06T06:03:31.722Z,16.80
2018-02-06T06:06:00.001Z,19.27
2018-02-06T06:08:28.331Z,17.13
2018-02-06T06:10:56.602Z,16.73
2018-02-06T06:13:24.913Z,18.17
2018-02-06T06:15:53.192Z,17.97
2018-02-06T06:18:21.475Z,20.50
2018-02-06T06:20:49.792Z,18.33
2018-02-06T06:23:18.066Z,18.73
2018-02-06T06:25:46.362Z,18.60
2018-02-06T06:28:14.646Z,23.87
2018-02-06T06:30:42.961Z,20.70
2018-02-06T06:33:11.241Z,25.25
2018-02-06T06:35:39.566Z,22.73
2018-02-06T06:38:07.846Z,21.00
2018-02-06T06:40:36.195Z,20.58
2018-02-06T06:43:05.222Z,22.13
2018-02-06T06:45:33.533Z,19.00
2018-02-06T06:48:01.817Z,25.00
2018-02-06T06:50:30.110Z,21.20
2018-02-06T06:52:58.387Z,21.00
2018-02-06T06:55:26.728Z,19.90
2018-02-06T06:57:55.146Z,16.87
2018-02-06T07:00:23.485Z,19.70
2018-02-06T07:02:51.930Z,19.13
2018-02-06T07:05:20.269Z,21.40
2018-02-06T07:07:48.670Z,21.20
2018-02-06T07:10:16.971Z,20.67
2018-02-06T07:12:45.248Z,19.87
2018-02-06T07:15:13.588Z,19.47
2018-02-06T07:17:41.970Z,19.37
2018-02-06T07:20:10.241Z,20.65
2018-02-06T07:22:38.518Z,19.37
2018-02-06T07:25:06.982Z,23.03
2018-02-06T07:27:35.355Z,25.43
2018-02-06T07:30:03.643Z,21.80
2018-02-06T07:32:32.022Z,18.73
2018-02-06T07:35:00.293Z,19.90
2018-02-06T07:37:28.566Z,21.37
2018-02-06T07:39:56.847Z,21.50
2018-02-06T07:42:25.155Z,18.33
2018-02-06T07:44:53.415Z,23.17
2018-02-06T07:47:21.758Z,22.10
2018-02-06T07:49:50.048Z,21.90
2018-02-06T07:52:18.355Z,22.30
2018-02-06T07:54:46.629Z,17.80
2018-02-06T07:57:14.898Z,18.90
2018-02-06T07:59:43.896Z,21.87
2018-02-06T08:02:12.188Z,18.85
2018-02-06T08:04:40.503Z,19.15
2018-02-06T08:07:08.802Z,19.55
2018-02-06T08:09:37.102Z,18.87
2018-02-06T08:12:05.373Z,24.03
2018-02-06T08:14:33.644Z,20.10
2018-02-06T08:17:02.004Z,21.13
2018-02-06T08:19:30.294Z,24.63
2018-02-06T08:21:58.648Z,20.85
2018-02-06T08:24:26.960Z,18.97
2018-02-06T08:26:55.299Z,24.53
2018-02-06T08:29:23.603Z,19.63
2018-02-06T08:31:51.879Z,21.83
2018-02-06T08:36:54.602Z,19.57
2018-02-06T08:39:22.961Z,20.37
2018-02-06T08:41:51.243Z,22.40
2018-02-06T08:44:19.549Z,20.85
2018-02-06T08:46:48.079Z,22.30
2018-02-06T08:49:17.087Z,18.87
2018-02-06T08:51:45.386Z,22.00
2018-02-06T08:54:13.708Z,22.23
2018-02-06T08:56:42.039Z,28.47
2018-02-06T08:59:10.300Z,23.98
2018-02-06T09:01:39.401Z,17.65
2018-02-06T09:04:07.710Z,18.10
2018-02-06T09:06:36.555Z,20.53
2018-02-06T09:09:04.927Z,18.17
2018-02-06T09:11:33.949Z,17.53
2018-02-06T09:14:02.247Z,18.17
2018-02-06T09:16:30.556Z,19.60
2018-02-06T09:18:58.844Z,19.20
2018-02-06T09:21:27.136Z,21.60
2018-02-06T09:23:55.447Z,20.50
2018-02-06T09:26:23.724Z,16.73
2018-02-06T09:28:52.088Z,22.30
2018-02-06T09:31:20.348Z,18.87
2018-02-06T09:33:48.655Z,17.58
2018-02-06T09:36:17.093Z,22.40
2018-02-06T09:38:45.366Z,20.07
2018-02-06T09:41:13.684Z,21.50
2018-02-06T09:43:42.647Z,17.60
2018-02-06T09:46:10.987Z,22.60
2018-02-06T09:48:39.364Z,20.60
2018-02-06T09:51:07.687Z,21.10
2018-02-06T09:53:36.594Z,20.65
2018-02-06T09:56:05.102Z,24.73
2018-02-06T09:58:33.443Z,20.30
2018-02-06T10:01:01.743Z,22.93
2018-02-06T10:03:30.142Z,23.90
2018-02-06T10:05:58.451Z,21.43
2018-02-06T10:08:26.740Z,21.23
2018-02-06T10:10:55.015Z,26.52
2018-02-06T10:13:23.354Z,19.98
2018-02-06T10:15:51.958Z,24.87
2018-02-06T10:18:20.334Z,22.37
2018-02-06T10:20:48.667Z,20.70
2018-02-06T10:23:16.930Z,20.20
2018-02-06T10:25:45.247Z,23.80
2018-02-06T10:28:13.532Z,20.20
2018-02-06T10:30:41.832Z,25.60
2018-02-06T10:33:10.113Z,21.50
2018-02-06T10:35:38.469Z,18.98
2018-02-06T10:38:07.298Z,22.87
2018-02-06T10:40:35.556Z,22.30
2018-02-06T10:43:04.748Z,20.20
2018-02-06T10:45:33.684Z,21.37
2018-02-06T10:48:01.986Z,22.37
2018-02-06T10:50:30.262Z,20.67
2018-02-06T10:52:59.524Z,20.63
2018-02-06T10:55:28.123Z,24.93
2018-02-06T10:57:56.436Z,21.43
2018-02-06T11:00:24.729Z,19.17
2018-02-06T11:02:56.692Z,21.60
2018-02-06T11:05:26.940Z,18.10
2018-02-06T11:07:55.264Z,22.52
2018-02-06T11:10:24.128Z,21.52
2018-02-06T11:12:52.460Z,22.27
2018-02-06T11:15:20.820Z,21.30
2018-02-06T11:17:49.104Z,24.73
2018-02-06T11:20:17.385Z,31.00
2018-02-06T11:22:45.679Z,21.27
2018-02-06T11:25:14.031Z,22.30
2018-02-06T11:27:42.299Z,32.13
2018-02-06T11:30:10.596Z,17.77
2018-02-06T11:32:38.919Z,27.50
2018-02-06T11:35:07.294Z,24.77
2018-02-06T11:37:35.571Z,30.13
2018-02-06T11:40:03.871Z,24.00
2018-02-06T11:42:32.306Z,23.30
2018-02-06T11:45:00.609Z,23.33
2018-02-06T11:47:28.935Z,24.80
2018-02-06T11:49:57.212Z,21.53
2018-02-06T11:52:25.513Z,23.45
2018-02-06T11:54:53.774Z,25.10
2018-02-06T11:57:22.148Z,24.30
2018-02-06T11:59:50.447Z,22.20
2018-02-06T12:02:18.783Z,23.97
2018-02-06T12:04:47.049Z,20.07
2018-02-06T12:07:15.336Z,20.83
2018-02-06T12:09:43.703Z,24.97
2018-02-06T12:12:11.989Z,25.27
2018-02-06T12:14:40.648Z,23.65
2018-02-06T12:17:10.525Z,24.57
2018-02-06T12:19:38.878Z,29.53
2018-02-06T12:22:07.148Z,26.67
2018-02-06T12:24:36.298Z,28.87
2018-02-06T12:27:05.649Z,23.77
2018-02-06T12:29:34.036Z,25.20
2018-02-06T12:32:02.339Z,29.20
2018-02-06T12:34:30.677Z,28.87
2018-02-06T12:36:59.034Z,24.40
2018-02-06T12:39:27.337Z,24.33
2018-02-06T12:41:55.707Z,37.03
2018-02-06T12:44:24.100Z,25.90
2018-02-06T12:46:52.409Z,23.57
2018-02-06T12:49:20.791Z,32.03
2018-02-06T12:51:49.544Z,25.60
2018-02-06T12:54:17.825Z,22.90
2018-02-06T12:56:46.127Z,25.90
2018-02-06T12:59:14.570Z,25.80
2018-02-06T13:01:42.924Z,23.70
2018-02-06T13:04:11.395Z,26.70
2018-02-06T13:06:39.749Z,26.67
2018-02-06T13:09:08.931Z,27.57
2018-02-06T13:11:37.205Z,23.00
2018-02-06T13:14:05.587Z,26.10
2018-02-06T13:16:33.918Z,26.70
2018-02-06T13:19:02.219Z,27.73
2018-02-06T13:21:30.499Z,37.60
2018-02-06T13:23:58.822Z,27.20
2018-02-06T13:26:27.126Z,24.92
2018-02-06T13:28:55.737Z,26.97
2018-02-06T13:31:24.030Z,28.73
2018-02-06T13:33:52.373Z,24.83
2018-02-06T13:36:20.752Z,25.02
2018-02-06T13:38:49.028Z,25.30
2018-02-06T13:41:17.413Z,23.73
2018-02-06T13:43:45.689Z,30.00
2018-02-06T13:46:14.161Z,28.70
2018-02-06T13:48:42.557Z,22.97
2018-02-06T13:51:10.848Z,30.80
2018-02-06T13:53:39.173Z,28.58
2018-02-06T13:56:07.473Z,25.73
2018-02-06T13:58:35.864Z,25.43
2018-02-06T14:01:04.643Z,26.25
2018-02-06T14:03:33.850Z,24.57
2018-02-06T14:06:02.449Z,30.37
2018-02-06T14:08:30.778Z,34.90
2018-02-06T14:10:59.075Z,34.23
2018-02-06T14:13:27.430Z,24.53
2018-02-06T14:15:55.794Z,25.53
2018-02-06T14:18:24.109Z,27.53
2018-02-06T14:20:52.955Z,26.07
2018-02-06T14:23:21.691Z,24.10
2018-02-06T14:25:51.272Z,31.40
2018-02-06T14:28:19.571Z,23.83
2018-02-06T14:30:47.935Z,24.00
2018-02-06T14:33:16.211Z,28.50
2018-02-06T14:35:44.562Z,25.75
2018-02-06T14:38:20.359Z,25.10
2018-02-06T14:40:49.316Z,30.50
2018-02-06T14:43:17.625Z,27.47
2018-02-06T14:45:45.936Z,32.40
2018-02-06T14:48:14.200Z,27.90
2018-02-06T14:50:42.511Z,29.13
2018-02-06T14:53:10.804Z,27.20
2018-02-06T14:55:39.111Z,26.90
2018-02-06T14:58:07.472Z,27.20
2018-02-06T15:00:36.493Z,24.00
2018-02-06T15:03:05.350Z,25.40
2018-02-06T15:05:33.622Z,28.03
2018-02-06T15:08:02.013Z,25.30
2018-02-06T15:10:30.273Z,27.87
2018-02-06T15:12:58.767Z,32.40
2018-02-06T15:15:27.145Z,26.87
2018-02-06T15:17:55.536Z,29.53
2018-02-06T15:20:23.920Z,28.95
2018-02-06T15:22:52.248Z,29.10
2018-02-06T15:25:20.579Z,25.27
2018-02-06T15:27:48.907Z,35.90
2018-02-06T15:30:17.236Z,26.80
2018-02-06T15:32:45.609Z,28.00
2018-02-06T15:35:13.963Z,28.52
2018-02-06T15:37:42.295Z,28.63
2018-02-06T15:40:10.641Z,27.63
2018-02-06T15:42:38.913Z,26.10
2018-02-06T15:45:07.986Z,27.17
2018-02-06T15:47:36.327Z,27.63
2018-02-06T15:50:04.946Z,24.57
2018-02-06T15:52:33.228Z,30.97
2018-02-06T15:55:01.503Z,28.13
2018-02-06T15:57:30.804Z,37.30
2018-02-06T15:59:59.110Z,30.13
2018-02-06T16:02:27.433Z,28.43
2018-02-06T16:04:55.744Z,29.63
2018-02-06T16:07:24.105Z,25.25
2018-02-06T16:09:52.455Z,26.23
2018-02-06T16:12:20.798Z,27.52
2018-02-06T16:14:49.115Z,27.50
2018-02-06T16:17:17.418Z,33.55
2018-02-06T16:19:45.724Z,39.07
2018-02-06T16:22:14.000Z,24.53
2018-02-06T16:24:42.321Z,26.65
2018-02-06T16:27:10.616Z,28.00
2018-02-06T16:29:39.112Z,27.47
2018-02-06T16:32:07.396Z,30.37
2018-02-06T16:34:35.738Z,29.00
2018-02-06T16:37:04.953Z,25.57
2018-02-06T16:39:33.273Z,28.00
2018-02-06T16:42:01.551Z,26.10
2018-02-06T16:44:29.887Z,30.07
2018-02-06T16:46:58.246Z,37.57
2018-02-06T16:49:26.507Z,29.37
2018-02-06T16:51:54.844Z,29.80
2018-02-06T16:54:23.244Z,26.03
2018-02-06T16:56:51.557Z,26.17
2018-02-06T16:59:19.861Z,31.40
2018-02-06T17:01:51.850Z,25.60
2018-02-06T17:04:20.603Z,26.63
2018-02-06T17:06:48.952Z,25.83
2018-02-06T17:09:17.259Z,26.17
2018-02-06T17:11:45.684Z,28.70
2018-02-06T17:14:14.060Z,29.53
2018-02-06T17:16:42.382Z,28.60
2018-02-06T17:19:10.679Z,30.47
2018-02-06T17:21:38.972Z,28.03
2018-02-06T17:24:07.284Z,28.70
2018-02-06T17:26:35.629Z,28.53
2018-02-06T17:29:03.982Z,29.60
2018-02-06T17:31:32.255Z,27.27
2018-02-06T17:34:00.533Z,28.87
2018-02-06T17:36:28.836Z,28.37
2018-02-06T17:38:57.146Z,26.43
2018-02-06T17:41:26.217Z,28.07
2018-02-06T17:43:54.556Z,27.50
2018-02-06T17:46:22.881Z,29.63
2018-02-06T17:48:51.154Z,33.10
2018-02-06T17:51:19.426Z,27.47
2018-02-06T17:53:47.727Z,27.87
2018-02-06T17:56:16.013Z,28.23
2018-02-06T17:58:44.303Z,30.03
2018-02-06T18:01:12.597Z,32.60
2018-02-06T18:03:40.956Z,26.67
2018-02-06T18:06:09.249Z,38.43
2018-02-06T18:08:37.530Z,28.43
2018-02-06T18:11:05.898Z,26.33
2018-02-06T18:13:34.186Z,31.47
2018-02-06T18:16:02.483Z,25.90
2018-02-06T18:18:30.758Z,27.13
2018-02-06T18:20:59.051Z,29.17
2018-02-06T18:23:27.328Z,28.00
2018-02-06T18:25:55.624Z,33.77
2018-02-06T18:28:23.933Z,28.77
2018-02-06T18:30:52.221Z,30.03
2018-02-06T18:33:20.814Z,25.97
2018-02-06T18:35:49.104Z,29.20
2018-02-06T18:38:17.417Z,30.23
2018-02-06T18:40:45.703Z,28.53
2018-02-06T18:43:14.041Z,36.17
2018-02-06T18:45:42.310Z,31.90
2018-02-06T18:48:10.682Z,28.90
2018-02-06T18:50:39.362Z,28.43
2018-02-06T18:53:07.622Z,28.33
2018-02-06T18:55:35.942Z,31.23
2018-02-06T18:58:04.794Z,36.45
2018-02-06T19:00:33.096Z,35.17
2018-02-06T19:03:01.374Z,27.27
2018-02-06T19:05:29.687Z,31.30
2018-02-06T19:07:59.054Z,25.27
2018-02-06T19:10:27.386Z,29.03
2018-02-06T19:12:55.701Z,29.97
2018-02-06T19:15:23.987Z,30.62
2018-02-06T19:17:52.314Z,32.20
2018-02-06T19:20:20.601Z,28.52
2018-02-06T19:22:48.943Z,28.60
2018-02-06T19:25:17.235Z,32.40
2018-02-06T19:27:46.368Z,33.70
2018-02-06T19:30:14.655Z,29.63
2018-02-06T19:32:42.988Z,28.27
2018-02-06T19:35:11.345Z,29.37
2018-02-06T19:37:39.636Z,33.53
2018-02-06T19:40:07.986Z,28.50
2018-02-06T19:42:36.300Z,29.80
2018-02-06T19:45:04.809Z,29.08
2018-02-06T19:47:33.039Z,30.30
2018-02-06T19:50:01.393Z,30.23
2018-02-06T19:52:29.674Z,27.87
2018-02-06T19:54:57.972Z,31.37
2018-02-06T19:57:26.693Z,32.10
2018-02-06T19:59:55.167Z,30.63
2018-02-06T20:02:23.452Z,27.00
2018-02-06T20:04:51.786Z,31.67
2018-02-06T20:07:21.116Z,30.62
2018-02-06T20:09:49.495Z,30.87
2018-02-06T20:12:17.888Z,28.87
2018-02-06T20:14:46.275Z,31.70
2018-02-06T20:17:14.584Z,30.02
2018-02-06T20:19:42.953Z,29.20
2018-02-06T20:22:11.297Z,28.20
2018-02-06T20:24:39.608Z,31.37
2018-02-06T20:27:07.895Z,29.77
2018-02-06T20:29:36.167Z,27.80
2018-02-06T20:32:04.596Z,31.17
2018-02-06T20:34:33.386Z,28.97
2018-02-06T20:37:01.731Z,26.25
2018-02-06T20:39:30.020Z,32.10
2018-02-06T20:41:58.424Z,28.03
2018-02-06T20:44:26.724Z,32.30
2018-02-06T20:46:54.999Z,32.80
2018-02-06T20:49:23.324Z,30.20
2018-02-06T20:51:51.622Z,31.58
2018-02-06T20:54:20.901Z,31.40
2018-02-06T20:56:49.108Z,28.33
2018-02-06T20:59:17.454Z,30.17
2018-02-06T21:01:45.728Z,32.07
2018-02-06T21:04:14.042Z,32.92
2018-02-06T21:06:42.352Z,30.13
2018-02-06T21:09:10.699Z,31.87
2018-02-06T21:11:38.999Z,29.37
2018-02-06T21:14:08.133Z,30.40
2018-02-06T21:16:36.450Z,33.20
2018-02-06T21:19:04.740Z,33.77
2018-02-06T21:21:33.067Z,39.43
2018-02-06T21:24:01.365Z,33.27
2018-02-06T21:26:29.687Z,29.80
2018-02-06T21:28:57.963Z,31.20
2018-02-06T21:31:26.325Z,32.40
2018-02-06T21:33:54.547Z,30.97
2018-02-06T21:36:22.917Z,31.12
2018-02-06T21:38:51.199Z,32.60
2018-02-06T21:41:19.516Z,29.47
2018-02-06T21:43:47.834Z,31.70
2018-02-06T21:46:16.197Z,32.87
2018-02-06T21:48:44.495Z,33.63
2018-02-06T21:51:12.747Z,34.00
2018-02-06T21:53:41.063Z,31.43
2018-02-06T21:56:09.391Z,30.40
2018-02-06T21:58:37.890Z,29.33
2018-02-06T22:01:06.215Z,34.00
2018-02-06T22:03:34.476Z,31.73
2018-02-06T22:06:02.782Z,30.33
2018-02-06T22:08:31.119Z,34.60
2018-02-06T22:10:59.397Z,28.33
2018-02-06T22:13:27.666Z,32.77
2018-02-06T22:15:56.005Z,33.40
2018-02-06T22:18:24.332Z,31.93
2018-02-06T22:20:52.653Z,30.97
2018-02-06T22:23:20.929Z,30.77
2018-02-06T22:25:49.254Z,33.47
2018-02-06T22:28:17.516Z,32.67
2018-02-06T22:30:45.840Z,30.52
2018-02-06T22:33:14.362Z,34.40
2018-02-06T22:35:42.691Z,29.97
2018-02-06T22:38:10.997Z,33.27
2018-02-06T22:40:39.387Z,36.87
2018-02-06T22:43:07.711Z,36.40
2018-02-06T22:45:36.041Z,37.45
2018-02-06T22:48:04.390Z,31.50
2018-02-06T22:50:32.693Z,28.97
2018-02-06T22:53:01.041Z,28.80
2018-02-06T22:55:29.397Z,31.37
2018-02-06T22:57:57.729Z,31.17
2018-02-06T23:00:26.028Z,31.00
2018-02-06T23:02:54.342Z,31.20
2018-02-06T23:05:22.637Z,29.58
2018-02-06T23:07:50.959Z,32.80
2018-02-06T23:10:19.256Z,31.90
2018-02-06T23:12:47.572Z,31.45
2018-02-06T23:15:15.862Z,29.87
2018-02-06T23:17:44.163Z,35.23
2018-02-06T23:20:12.470Z,31.33
2018-02-06T23:22:40.819Z,30.70
2018-02-06T23:25:09.145Z,32.27
2018-02-06T23:27:37.400Z,32.70
2018-02-06T23:30:05.746Z,35.53
2018-02-06T23:32:34.076Z,31.80
2018-02-06T23:35:02.384Z,33.60
2018-02-06T23:37:30.679Z,29.73
2018-02-06T23:39:58.958Z,30.95
2018-02-06T23:42:27.282Z,33.63
2018-02-06T23:44:55.551Z,29.10
2018-02-06T23:47:23.881Z,29.90
2018-02-06T23:49:52.170Z,31.60
2018-02-06T23:52:20.495Z,30.90
2018-02-06T23:54:48.784Z,29.23
2018-02-06T23:57:17.092Z,33.03
2018-02-06T23:59:45.396Z,30.47
